sensor_id;sensor_type;location;lat;lon;timestamp;P1;durP1;ratioP1;P2;durP2;ratioP2
23115;SDS011;11727;52.134;5.052;2022-08-05T00:00:59;2.40;;;1.15;;
23115;SDS011;11727;52.134;5.052;2022-08-05T00:03:24;6.18;;;1.45;;
23115;SDS011;11727;52.134;5.052;2022-08-05T00:05:50;2.33;;;1.00;;
23115;SDS011;11727;52.134;5.052;2022-08-05T00:08:16;2.88;;;0.85;;
23115;SDS011;11727;52.134;5.052;2022-08-05T00:10:41;3.17;;;1.30;;
23115;SDS011;11727;52.134;5.052;2022-08-05T00:13:07;5.22;;;1.35;;
23115;SDS011;11727;52.134;5.052;2022-08-05T00:15:32;3.47;;;1.00;;
23115;SDS011;11727;52.134;5.052;2022-08-05T00:17:58;5.00;;;1.20;;
23115;SDS011;11727;52.134;5.052;2022-08-05T00:20:24;3.05;;;1.17;;
23115;SDS011;11727;52.134;5.052;2022-08-05T00:22:50;6.07;;;1.55;;
23115;SDS011;11727;52.134;5.052;2022-08-05T00:25:15;4.72;;;1.30;;
23115;SDS011;11727;52.134;5.052;2022-08-05T00:27:43;3.08;;;1.00;;
23115;SDS011;11727;52.134;5.052;2022-08-05T00:32:34;13.95;;;1.67;;
23115;SDS011;11727;52.134;5.052;2022-08-05T00:35:00;2.92;;;0.90;;
23115;SDS011;11727;52.134;5.052;2022-08-05T00:37:26;2.65;;;1.20;;
23115;SDS011;11727;52.134;5.052;2022-08-05T00:39:51;1.33;;;0.85;;
23115;SDS011;11727;52.134;5.052;2022-08-05T00:42:36;3.17;;;1.27;;
23115;SDS011;11727;52.134;5.052;2022-08-05T00:45:04;3.47;;;1.48;;
23115;SDS011;11727;52.134;5.052;2022-08-05T00:47:31;2.75;;;1.30;;
23115;SDS011;11727;52.134;5.052;2022-08-05T00:49:57;2.38;;;1.20;;
23115;SDS011;11727;52.134;5.052;2022-08-05T00:52:22;0.85;;;0.75;;
23115;SDS011;11727;52.134;5.052;2022-08-05T00:54:48;3.22;;;1.08;;
23115;SDS011;11727;52.134;5.052;2022-08-05T00:57:14;3.25;;;1.00;;
23115;SDS011;11727;52.134;5.052;2022-08-05T00:59:39;1.23;;;0.90;;
23115;SDS011;11727;52.134;5.052;2022-08-05T01:02:05;4.03;;;1.20;;
23115;SDS011;11727;52.134;5.052;2022-08-05T01:04:31;1.40;;;1.27;;
23115;SDS011;11727;52.134;5.052;2022-08-05T01:06:56;4.32;;;1.05;;
23115;SDS011;11727;52.134;5.052;2022-08-05T01:09:22;2.17;;;1.30;;
23115;SDS011;11727;52.134;5.052;2022-08-05T01:11:48;4.18;;;1.00;;
23115;SDS011;11727;52.134;5.052;2022-08-05T01:17:01;5.57;;;1.02;;
23115;SDS011;11727;52.134;5.052;2022-08-05T01:19:41;2.13;;;1.10;;
23115;SDS011;11727;52.134;5.052;2022-08-05T01:22:25;3.65;;;0.95;;
23115;SDS011;11727;52.134;5.052;2022-08-05T01:30:40;3.13;;;0.98;;
23115;SDS011;11727;52.134;5.052;2022-08-05T01:33:11;1.38;;;0.80;;
23115;SDS011;11727;52.134;5.052;2022-08-05T01:35:44;2.38;;;0.88;;
23115;SDS011;11727;52.134;5.052;2022-08-05T01:38:11;6.90;;;1.83;;
23115;SDS011;11727;52.134;5.052;2022-08-05T01:40:38;1.23;;;0.80;;
23115;SDS011;11727;52.134;5.052;2022-08-05T01:43:04;6.70;;;0.88;;
23115;SDS011;11727;52.134;5.052;2022-08-05T01:45:33;8.02;;;1.00;;
23115;SDS011;11727;52.134;5.052;2022-08-05T01:48:00;5.28;;;1.30;;
23115;SDS011;11727;52.134;5.052;2022-08-05T01:50:28;1.30;;;0.93;;
23115;SDS011;11727;52.134;5.052;2022-08-05T01:52:59;4.97;;;0.98;;
23115;SDS011;11727;52.134;5.052;2022-08-05T01:55:31;3.95;;;1.17;;
23115;SDS011;11727;52.134;5.052;2022-08-05T01:57:58;0.90;;;0.60;;
23115;SDS011;11727;52.134;5.052;2022-08-05T02:00:25;2.17;;;0.80;;
23115;SDS011;11727;52.134;5.052;2022-08-05T02:02:55;1.38;;;0.82;;
23115;SDS011;11727;52.134;5.052;2022-08-05T02:05:28;3.63;;;1.10;;
23115;SDS011;11727;52.134;5.052;2022-08-05T02:07:57;0.90;;;0.70;;
23115;SDS011;11727;52.134;5.052;2022-08-05T02:10:24;0.77;;;0.60;;
23115;SDS011;11727;52.134;5.052;2022-08-05T02:12:53;3.15;;;1.00;;
23115;SDS011;11727;52.134;5.052;2022-08-05T02:15:25;1.95;;;0.73;;
23115;SDS011;11727;52.134;5.052;2022-08-05T02:20:31;3.80;;;0.77;;
23115;SDS011;11727;52.134;5.052;2022-08-05T02:23:09;2.55;;;0.95;;
23115;SDS011;11727;52.134;5.052;2022-08-05T02:25:39;1.88;;;0.80;;
23115;SDS011;11727;52.134;5.052;2022-08-05T02:28:07;1.80;;;0.70;;
23115;SDS011;11727;52.134;5.052;2022-08-05T02:30:38;5.35;;;1.23;;
23115;SDS011;11727;52.134;5.052;2022-08-05T02:33:12;4.35;;;0.75;;
23115;SDS011;11727;52.134;5.052;2022-08-05T02:35:40;2.08;;;0.85;;
23115;SDS011;11727;52.134;5.052;2022-08-05T02:38:08;2.10;;;0.88;;
23115;SDS011;11727;52.134;5.052;2022-08-05T02:40:35;4.78;;;1.10;;
23115;SDS011;11727;52.134;5.052;2022-08-05T02:43:04;1.73;;;0.80;;
23115;SDS011;11727;52.134;5.052;2022-08-05T02:45:30;4.88;;;1.02;;
23115;SDS011;11727;52.134;5.052;2022-08-05T02:47:57;2.13;;;0.70;;
23115;SDS011;11727;52.134;5.052;2022-08-05T02:50:25;7.05;;;1.67;;
23115;SDS011;11727;52.134;5.052;2022-08-05T02:52:51;2.78;;;0.90;;
23115;SDS011;11727;52.134;5.052;2022-08-05T02:55:17;1.52;;;0.70;;
23115;SDS011;11727;52.134;5.052;2022-08-05T02:57:43;3.05;;;1.05;;
23115;SDS011;11727;52.134;5.052;2022-08-05T03:00:10;3.25;;;1.15;;
23115;SDS011;11727;52.134;5.052;2022-08-05T03:02:38;4.50;;;1.00;;
23115;SDS011;11727;52.134;5.052;2022-08-05T03:05:06;2.78;;;0.93;;
23115;SDS011;11727;52.134;5.052;2022-08-05T03:07:34;1.45;;;0.95;;
23115;SDS011;11727;52.134;5.052;2022-08-05T03:10:00;2.95;;;0.80;;
23115;SDS011;11727;52.134;5.052;2022-08-05T03:12:30;0.90;;;0.60;;
23115;SDS011;11727;52.134;5.052;2022-08-05T03:14:57;3.00;;;0.60;;
23115;SDS011;11727;52.134;5.052;2022-08-05T03:17:22;2.05;;;0.73;;
23115;SDS011;11727;52.134;5.052;2022-08-05T03:19:48;1.02;;;0.80;;
23115;SDS011;11727;52.134;5.052;2022-08-05T03:22:14;3.28;;;0.70;;
23115;SDS011;11727;52.134;5.052;2022-08-05T03:24:43;2.70;;;0.85;;
23115;SDS011;11727;52.134;5.052;2022-08-05T03:27:09;2.42;;;0.80;;
23115;SDS011;11727;52.134;5.052;2022-08-05T03:29:35;6.15;;;1.00;;
23115;SDS011;11727;52.134;5.052;2022-08-05T03:32:01;2.72;;;0.65;;
23115;SDS011;11727;52.134;5.052;2022-08-05T03:34:29;0.98;;;0.60;;
23115;SDS011;11727;52.134;5.052;2022-08-05T03:36:56;0.88;;;0.63;;
23115;SDS011;11727;52.134;5.052;2022-08-05T03:39:25;1.40;;;0.60;;
23115;SDS011;11727;52.134;5.052;2022-08-05T03:41:50;7.25;;;0.82;;
23115;SDS011;11727;52.134;5.052;2022-08-05T03:44:19;2.33;;;0.43;;
23115;SDS011;11727;52.134;5.052;2022-08-05T03:46:44;0.63;;;0.40;;
23115;SDS011;11727;52.134;5.052;2022-08-05T03:49:10;1.52;;;0.80;;
23115;SDS011;11727;52.134;5.052;2022-08-05T03:51:41;2.10;;;0.82;;
23115;SDS011;11727;52.134;5.052;2022-08-05T03:57:03;2.35;;;0.60;;
23115;SDS011;11727;52.134;5.052;2022-08-05T03:59:32;3.15;;;0.80;;
23115;SDS011;11727;52.134;5.052;2022-08-05T04:02:04;1.35;;;0.43;;
23115;SDS011;11727;52.134;5.052;2022-08-05T04:04:32;0.50;;;0.43;;
23115;SDS011;11727;52.134;5.052;2022-08-05T04:06:59;0.90;;;0.50;;
23115;SDS011;11727;52.134;5.052;2022-08-05T04:09:25;1.20;;;0.50;;
23115;SDS011;11727;52.134;5.052;2022-08-05T04:11:53;1.90;;;0.60;;
23115;SDS011;11727;52.134;5.052;2022-08-05T04:14:20;6.27;;;0.60;;
23115;SDS011;11727;52.134;5.052;2022-08-05T04:16:46;3.47;;;0.85;;
23115;SDS011;11727;52.134;5.052;2022-08-05T04:19:12;5.43;;;0.98;;
23115;SDS011;11727;52.134;5.052;2022-08-05T04:21:38;1.27;;;0.70;;
23115;SDS011;11727;52.134;5.052;2022-08-05T04:24:05;1.35;;;0.60;;
23115;SDS011;11727;52.134;5.052;2022-08-05T04:26:31;2.03;;;0.60;;
23115;SDS011;11727;52.134;5.052;2022-08-05T04:28:57;0.82;;;0.50;;
23115;SDS011;11727;52.134;5.052;2022-08-05T04:31:22;5.70;;;0.57;;
23115;SDS011;11727;52.134;5.052;2022-08-05T04:33:48;3.95;;;0.93;;
23115;SDS011;11727;52.134;5.052;2022-08-05T04:36:13;2.45;;;0.63;;
23115;SDS011;11727;52.134;5.052;2022-08-05T04:38:40;3.15;;;0.77;;
23115;SDS011;11727;52.134;5.052;2022-08-05T04:43:32;5.70;;;0.80;;
23115;SDS011;11727;52.134;5.052;2022-08-05T04:45:58;2.17;;;0.70;;
23115;SDS011;11727;52.134;5.052;2022-08-05T04:48:24;0.70;;;0.50;;
23115;SDS011;11727;52.134;5.052;2022-08-05T04:50:49;1.42;;;0.52;;
23115;SDS011;11727;52.134;5.052;2022-08-05T04:53:16;1.50;;;0.70;;
23115;SDS011;11727;52.134;5.052;2022-08-05T04:55:42;4.75;;;0.52;;
23115;SDS011;11727;52.134;5.052;2022-08-05T04:58:10;1.80;;;0.50;;
23115;SDS011;11727;52.134;5.052;2022-08-05T05:00:37;1.65;;;0.70;;
23115;SDS011;11727;52.134;5.052;2022-08-05T05:03:04;1.00;;;0.43;;
23115;SDS011;11727;52.134;5.052;2022-08-05T05:05:31;1.42;;;0.60;;
23115;SDS011;11727;52.134;5.052;2022-08-05T05:08:01;0.50;;;0.40;;
23115;SDS011;11727;52.134;5.052;2022-08-05T05:10:32;1.15;;;0.40;;
23115;SDS011;11727;52.134;5.052;2022-08-05T05:13:06;1.85;;;0.50;;
23115;SDS011;11727;52.134;5.052;2022-08-05T05:15:33;0.95;;;0.43;;
23115;SDS011;11727;52.134;5.052;2022-08-05T05:17:59;3.38;;;0.85;;
23115;SDS011;11727;52.134;5.052;2022-08-05T05:20:24;1.02;;;0.47;;
23115;SDS011;11727;52.134;5.052;2022-08-05T05:22:52;2.28;;;0.75;;
23115;SDS011;11727;52.134;5.052;2022-08-05T05:25:18;1.92;;;0.47;;
23115;SDS011;11727;52.134;5.052;2022-08-05T05:27:44;1.65;;;0.60;;
23115;SDS011;11727;52.134;5.052;2022-08-05T05:30:09;3.70;;;1.10;;
23115;SDS011;11727;52.134;5.052;2022-08-05T05:32:35;2.67;;;0.50;;
23115;SDS011;11727;52.134;5.052;2022-08-05T05:35:01;1.30;;;0.73;;
23115;SDS011;11727;52.134;5.052;2022-08-05T05:37:27;2.35;;;0.93;;
23115;SDS011;11727;52.134;5.052;2022-08-05T05:39:52;2.70;;;0.60;;
23115;SDS011;11727;52.134;5.052;2022-08-05T05:42:18;0.85;;;0.40;;
23115;SDS011;11727;52.134;5.052;2022-08-05T05:44:43;3.25;;;0.75;;
23115;SDS011;11727;52.134;5.052;2022-08-05T05:47:09;0.77;;;0.40;;
23115;SDS011;11727;52.134;5.052;2022-08-05T05:49:34;1.65;;;0.40;;
23115;SDS011;11727;52.134;5.052;2022-08-05T05:52:00;1.55;;;0.60;;
23115;SDS011;11727;52.134;5.052;2022-08-05T05:54:26;1.67;;;0.60;;
23115;SDS011;11727;52.134;5.052;2022-08-05T05:56:51;2.00;;;0.50;;
23115;SDS011;11727;52.134;5.052;2022-08-05T05:59:17;1.00;;;0.50;;
23115;SDS011;11727;52.134;5.052;2022-08-05T06:01:42;1.08;;;0.50;;
23115;SDS011;11727;52.134;5.052;2022-08-05T06:04:09;3.03;;;0.50;;
23115;SDS011;11727;52.134;5.052;2022-08-05T06:06:36;1.05;;;0.50;;
23115;SDS011;11727;52.134;5.052;2022-08-05T06:09:02;2.97;;;0.40;;
23115;SDS011;11727;52.134;5.052;2022-08-05T06:11:29;1.33;;;0.52;;
23115;SDS011;11727;52.134;5.052;2022-08-05T06:13:55;1.58;;;0.55;;
23115;SDS011;11727;52.134;5.052;2022-08-05T06:16:21;3.25;;;0.50;;
23115;SDS011;11727;52.134;5.052;2022-08-05T06:18:47;0.50;;;0.40;;
23115;SDS011;11727;52.134;5.052;2022-08-05T06:21:13;3.20;;;0.63;;
23115;SDS011;11727;52.134;5.052;2022-08-05T06:23:38;0.82;;;0.40;;
23115;SDS011;11727;52.134;5.052;2022-08-05T06:26:04;0.80;;;0.40;;
23115;SDS011;11727;52.134;5.052;2022-08-05T06:28:29;1.08;;;0.30;;
23115;SDS011;11727;52.134;5.052;2022-08-05T06:30:55;4.78;;;0.60;;
23115;SDS011;11727;52.134;5.052;2022-08-05T06:33:21;2.30;;;0.63;;
23115;SDS011;11727;52.134;5.052;2022-08-05T06:35:46;0.63;;;0.30;;
23115;SDS011;11727;52.134;5.052;2022-08-05T06:38:12;1.73;;;0.60;;
23115;SDS011;11727;52.134;5.052;2022-08-05T06:40:38;3.30;;;0.40;;
23115;SDS011;11727;52.134;5.052;2022-08-05T06:43:11;1.02;;;0.55;;
23115;SDS011;11727;52.134;5.052;2022-08-05T06:45:37;5.18;;;0.50;;
23115;SDS011;11727;52.134;5.052;2022-08-05T06:48:03;0.60;;;0.30;;
23115;SDS011;11727;52.134;5.052;2022-08-05T06:50:29;0.20;;;0.20;;
23115;SDS011;11727;52.134;5.052;2022-08-05T06:52:54;0.60;;;0.30;;
23115;SDS011;11727;52.134;5.052;2022-08-05T06:55:20;4.38;;;0.30;;
23115;SDS011;11727;52.134;5.052;2022-08-05T06:57:46;1.55;;;0.40;;
23115;SDS011;11727;52.134;5.052;2022-08-05T07:00:11;6.07;;;0.43;;
23115;SDS011;11727;52.134;5.052;2022-08-05T07:02:43;3.90;;;0.60;;
23115;SDS011;11727;52.134;5.052;2022-08-05T07:05:10;5.75;;;0.60;;
23115;SDS011;11727;52.134;5.052;2022-08-05T07:07:37;3.83;;;0.47;;
23115;SDS011;11727;52.134;5.052;2022-08-05T07:10:03;1.10;;;0.47;;
23115;SDS011;11727;52.134;5.052;2022-08-05T07:12:29;0.80;;;0.32;;
23115;SDS011;11727;52.134;5.052;2022-08-05T07:15:14;6.47;;;0.80;;
23115;SDS011;11727;52.134;5.052;2022-08-05T07:17:58;1.25;;;0.40;;
23115;SDS011;11727;52.134;5.052;2022-08-05T07:20:23;0.82;;;0.35;;
23115;SDS011;11727;52.134;5.052;2022-08-05T07:22:49;4.78;;;0.52;;
23115;SDS011;11727;52.134;5.052;2022-08-05T07:25:14;0.40;;;0.30;;
23115;SDS011;11727;52.134;5.052;2022-08-05T07:27:40;0.50;;;0.30;;
23115;SDS011;11727;52.134;5.052;2022-08-05T07:30:06;0.77;;;0.40;;
23115;SDS011;11727;52.134;5.052;2022-08-05T07:32:35;0.40;;;0.30;;
23115;SDS011;11727;52.134;5.052;2022-08-05T07:35:08;0.45;;;0.32;;
23115;SDS011;11727;52.134;5.052;2022-08-05T07:37:35;1.95;;;0.40;;
23115;SDS011;11727;52.134;5.052;2022-08-05T07:40:01;0.20;;;0.20;;
23115;SDS011;11727;52.134;5.052;2022-08-05T07:42:28;0.57;;;0.35;;
23115;SDS011;11727;52.134;5.052;2022-08-05T07:44:54;0.32;;;0.30;;
23115;SDS011;11727;52.134;5.052;2022-08-05T07:47:19;0.50;;;0.30;;
23115;SDS011;11727;52.134;5.052;2022-08-05T07:49:45;2.88;;;0.40;;
23115;SDS011;11727;52.134;5.052;2022-08-05T07:52:11;1.20;;;0.28;;
23115;SDS011;11727;52.134;5.052;2022-08-05T07:54:36;3.78;;;0.30;;
23115;SDS011;11727;52.134;5.052;2022-08-05T07:57:02;1.23;;;0.30;;
23115;SDS011;11727;52.134;5.052;2022-08-05T07:59:28;2.75;;;0.30;;
23115;SDS011;11727;52.134;5.052;2022-08-05T08:01:54;1.27;;;0.35;;
23115;SDS011;11727;52.134;5.052;2022-08-05T08:04:22;1.27;;;0.30;;
23115;SDS011;11727;52.134;5.052;2022-08-05T08:06:50;0.75;;;0.40;;
23115;SDS011;11727;52.134;5.052;2022-08-05T08:09:16;0.55;;;0.30;;
23115;SDS011;11727;52.134;5.052;2022-08-05T08:11:41;1.50;;;0.30;;
23115;SDS011;11727;52.134;5.052;2022-08-05T08:14:07;1.52;;;0.30;;
23115;SDS011;11727;52.134;5.052;2022-08-05T08:16:32;0.82;;;0.30;;
23115;SDS011;11727;52.134;5.052;2022-08-05T08:18:58;1.75;;;0.30;;
23115;SDS011;11727;52.134;5.052;2022-08-05T08:21:23;0.45;;;0.22;;
23115;SDS011;11727;52.134;5.052;2022-08-05T08:23:49;0.20;;;0.20;;
23115;SDS011;11727;52.134;5.052;2022-08-05T08:26:15;0.35;;;0.30;;
23115;SDS011;11727;52.134;5.052;2022-08-05T08:28:41;0.55;;;0.30;;
23115;SDS011;11727;52.134;5.052;2022-08-05T08:31:06;0.77;;;0.30;;
23115;SDS011;11727;52.134;5.052;2022-08-05T08:33:32;0.38;;;0.28;;
23115;SDS011;11727;52.134;5.052;2022-08-05T08:35:58;1.75;;;0.20;;
23115;SDS011;11727;52.134;5.052;2022-08-05T08:38:24;0.22;;;0.20;;
23115;SDS011;11727;52.134;5.052;2022-08-05T08:40:52;0.45;;;0.20;;
23115;SDS011;11727;52.134;5.052;2022-08-05T08:43:21;1.05;;;0.30;;
23115;SDS011;11727;52.134;5.052;2022-08-05T08:45:48;0.70;;;0.40;;
23115;SDS011;11727;52.134;5.052;2022-08-05T08:48:16;2.17;;;0.55;;
23115;SDS011;11727;52.134;5.052;2022-08-05T08:53:10;5.82;;;1.05;;
23115;SDS011;11727;52.134;5.052;2022-08-05T08:55:40;0.60;;;0.40;;
23115;SDS011;11727;52.134;5.052;2022-08-05T08:58:09;0.17;;;0.17;;
23115;SDS011;11727;52.134;5.052;2022-08-05T09:00:39;0.85;;;0.47;;
23115;SDS011;11727;52.134;5.052;2022-08-05T09:03:06;0.40;;;0.20;;
23115;SDS011;11727;52.134;5.052;2022-08-05T09:05:33;1.00;;;0.22;;
23115;SDS011;11727;52.134;5.052;2022-08-05T09:07:58;0.35;;;0.13;;
23115;SDS011;11727;52.134;5.052;2022-08-05T09:10:24;0.73;;;0.25;;
23115;SDS011;11727;52.134;5.052;2022-08-05T09:12:50;1.55;;;0.28;;
23115;SDS011;11727;52.134;5.052;2022-08-05T09:15:16;3.70;;;0.38;;
23115;SDS011;11727;52.134;5.052;2022-08-05T09:17:41;2.03;;;0.30;;
23115;SDS011;11727;52.134;5.052;2022-08-05T09:20:11;0.20;;;0.13;;
23115;SDS011;11727;52.134;5.052;2022-08-05T09:25:31;1.15;;;0.40;;
23115;SDS011;11727;52.134;5.052;2022-08-05T09:30:54;1.83;;;0.38;;
23115;SDS011;11727;52.134;5.052;2022-08-05T09:33:21;0.50;;;0.30;;
23115;SDS011;11727;52.134;5.052;2022-08-05T09:36:04;0.20;;;0.20;;
23115;SDS011;11727;52.134;5.052;2022-08-05T09:38:30;0.88;;;0.25;;
23115;SDS011;11727;52.134;5.052;2022-08-05T09:41:03;0.30;;;0.25;;
23115;SDS011;11727;52.134;5.052;2022-08-05T09:43:32;1.30;;;0.30;;
23115;SDS011;11727;52.134;5.052;2022-08-05T09:46:04;2.00;;;0.30;;
23115;SDS011;11727;52.134;5.052;2022-08-05T09:51:02;0.20;;;0.20;;
23115;SDS011;11727;52.134;5.052;2022-08-05T09:53:29;0.82;;;0.40;;
23115;SDS011;11727;52.134;5.052;2022-08-05T09:56:11;1.65;;;0.30;;
23115;SDS011;11727;52.134;5.052;2022-08-05T09:58:36;0.10;;;0.10;;
23115;SDS011;11727;52.134;5.052;2022-08-05T10:01:03;0.45;;;0.20;;
23115;SDS011;11727;52.134;5.052;2022-08-05T10:06:08;0.57;;;0.30;;
23115;SDS011;11727;52.134;5.052;2022-08-05T10:08:37;0.85;;;0.40;;
23115;SDS011;11727;52.134;5.052;2022-08-05T10:11:04;1.08;;;0.55;;
23115;SDS011;11727;52.134;5.052;2022-08-05T10:13:37;0.30;;;0.10;;
23115;SDS011;11727;52.134;5.052;2022-08-05T10:16:04;0.22;;;0.20;;
23115;SDS011;11727;52.134;5.052;2022-08-05T10:18:31;0.38;;;0.20;;
23115;SDS011;11727;52.134;5.052;2022-08-05T10:20:58;0.70;;;0.30;;
23115;SDS011;11727;52.134;5.052;2022-08-05T10:23:27;0.75;;;0.20;;
23115;SDS011;11727;52.134;5.052;2022-08-05T10:25:57;0.65;;;0.20;;
23115;SDS011;11727;52.134;5.052;2022-08-05T10:30:51;0.88;;;0.20;;
23115;SDS011;11727;52.134;5.052;2022-08-05T10:33:18;0.10;;;0.10;;
23115;SDS011;11727;52.134;5.052;2022-08-05T10:35:47;0.57;;;0.20;;
23115;SDS011;11727;52.134;5.052;2022-08-05T10:38:17;0.20;;;0.20;;
23115;SDS011;11727;52.134;5.052;2022-08-05T10:46:41;0.40;;;0.25;;
23115;SDS011;11727;52.134;5.052;2022-08-05T10:49:17;2.60;;;0.20;;
23115;SDS011;11727;52.134;5.052;2022-08-05T10:51:45;1.80;;;0.47;;
23115;SDS011;11727;52.134;5.052;2022-08-05T10:54:21;0.30;;;0.28;;
23115;SDS011;11727;52.134;5.052;2022-08-05T10:56:48;0.70;;;0.30;;
23115;SDS011;11727;52.134;5.052;2022-08-05T10:59:29;0.90;;;0.35;;
23115;SDS011;11727;52.134;5.052;2022-08-05T11:02:05;1.85;;;0.30;;
23115;SDS011;11727;52.134;5.052;2022-08-05T11:04:32;0.85;;;0.25;;
23115;SDS011;11727;52.134;5.052;2022-08-05T11:07:07;0.45;;;0.22;;
23115;SDS011;11727;52.134;5.052;2022-08-05T11:09:48;0.57;;;0.25;;
23115;SDS011;11727;52.134;5.052;2022-08-05T11:17:44;1.50;;;0.60;;
23115;SDS011;11727;52.134;5.052;2022-08-05T11:33:28;0.32;;;0.20;;
23115;SDS011;11727;52.134;5.052;2022-08-05T11:36:06;0.32;;;0.20;;
23115;SDS011;11727;52.134;5.052;2022-08-05T11:41:26;0.22;;;0.10;;
23115;SDS011;11727;52.134;5.052;2022-08-05T11:43:56;0.20;;;0.20;;
23115;SDS011;11727;52.134;5.052;2022-08-05T11:46:29;3.28;;;0.38;;
23115;SDS011;11727;52.134;5.052;2022-08-05T11:49:00;0.63;;;0.20;;
23115;SDS011;11727;52.134;5.052;2022-08-05T11:51:28;0.28;;;0.20;;
23115;SDS011;11727;52.134;5.052;2022-08-05T11:53:54;0.10;;;0.10;;
23115;SDS011;11727;52.134;5.052;2022-08-05T11:56:21;0.82;;;0.20;;
23115;SDS011;11727;52.134;5.052;2022-08-05T11:58:47;0.10;;;0.10;;
23115;SDS011;11727;52.134;5.052;2022-08-05T12:01:17;3.63;;;0.40;;
23115;SDS011;11727;52.134;5.052;2022-08-05T12:03:52;0.40;;;0.20;;
23115;SDS011;11727;52.134;5.052;2022-08-05T12:06:23;1.10;;;0.30;;
23115;SDS011;11727;52.134;5.052;2022-08-05T12:08:51;0.82;;;0.20;;
23115;SDS011;11727;52.134;5.052;2022-08-05T12:11:22;0.20;;;0.20;;
23115;SDS011;11727;52.134;5.052;2022-08-05T12:13:54;1.05;;;0.30;;
23115;SDS011;11727;52.134;5.052;2022-08-05T12:16:24;3.50;;;0.28;;
23115;SDS011;11727;52.134;5.052;2022-08-05T12:18:52;1.25;;;0.30;;
23115;SDS011;11727;52.134;5.052;2022-08-05T12:21:22;1.55;;;0.30;;
23115;SDS011;11727;52.134;5.052;2022-08-05T12:23:51;0.93;;;0.20;;
23115;SDS011;11727;52.134;5.052;2022-08-05T12:29:05;0.82;;;0.22;;
23115;SDS011;11727;52.134;5.052;2022-08-05T12:31:32;0.75;;;0.20;;
23115;SDS011;11727;52.134;5.052;2022-08-05T12:34:01;0.45;;;0.20;;
23115;SDS011;11727;52.134;5.052;2022-08-05T12:36:30;1.52;;;0.20;;
23115;SDS011;11727;52.134;5.052;2022-08-05T12:38:57;1.63;;;0.30;;
23115;SDS011;11727;52.134;5.052;2022-08-05T12:41:28;0.75;;;0.20;;
23115;SDS011;11727;52.134;5.052;2022-08-05T12:43:56;0.40;;;0.30;;
23115;SDS011;11727;52.134;5.052;2022-08-05T12:46:25;0.75;;;0.30;;
23115;SDS011;11727;52.134;5.052;2022-08-05T12:48:59;0.82;;;0.20;;
23115;SDS011;11727;52.134;5.052;2022-08-05T12:51:24;0.10;;;0.10;;
23115;SDS011;11727;52.134;5.052;2022-08-05T12:53:51;1.13;;;0.20;;
23115;SDS011;11727;52.134;5.052;2022-08-05T12:56:23;0.28;;;0.20;;
23115;SDS011;11727;52.134;5.052;2022-08-05T13:01:38;1.00;;;0.20;;
23115;SDS011;11727;52.134;5.052;2022-08-05T13:04:04;1.08;;;0.20;;
23115;SDS011;11727;52.134;5.052;2022-08-05T13:06:30;3.17;;;0.35;;
23115;SDS011;11727;52.134;5.052;2022-08-05T13:08:56;0.55;;;0.20;;
23115;SDS011;11727;52.134;5.052;2022-08-05T13:11:22;0.20;;;0.20;;
23115;SDS011;11727;52.134;5.052;2022-08-05T13:13:52;0.20;;;0.20;;
23115;SDS011;11727;52.134;5.052;2022-08-05T13:16:21;1.50;;;0.20;;
23115;SDS011;11727;52.134;5.052;2022-08-05T13:18:49;2.35;;;0.35;;
23115;SDS011;11727;52.134;5.052;2022-08-05T13:21:19;0.40;;;0.10;;
23115;SDS011;11727;52.134;5.052;2022-08-05T13:23:45;0.40;;;0.20;;
23115;SDS011;11727;52.134;5.052;2022-08-05T13:26:11;0.60;;;0.20;;
23115;SDS011;11727;52.134;5.052;2022-08-05T13:28:36;0.25;;;0.17;;
23115;SDS011;11727;52.134;5.052;2022-08-05T13:31:02;0.10;;;0.10;;
23115;SDS011;11727;52.134;5.052;2022-08-05T13:33:27;3.30;;;0.52;;
23115;SDS011;11727;52.134;5.052;2022-08-05T13:35:53;1.13;;;0.40;;
23115;SDS011;11727;52.134;5.052;2022-08-05T13:38:19;3.17;;;0.30;;
23115;SDS011;11727;52.134;5.052;2022-08-05T13:40:45;2.08;;;1.02;;
23115;SDS011;11727;52.134;5.052;2022-08-05T13:43:10;0.57;;;0.38;;
23115;SDS011;11727;52.134;5.052;2022-08-05T13:45:37;0.40;;;0.30;;
23115;SDS011;11727;52.134;5.052;2022-08-05T13:48:03;1.08;;;0.57;;
23115;SDS011;11727;52.134;5.052;2022-08-05T13:50:29;0.20;;;0.20;;
23115;SDS011;11727;52.134;5.052;2022-08-05T13:52:54;0.40;;;0.20;;
23115;SDS011;11727;52.134;5.052;2022-08-05T13:55:20;0.55;;;0.25;;
23115;SDS011;11727;52.134;5.052;2022-08-05T13:57:46;0.40;;;0.30;;
23115;SDS011;11727;52.134;5.052;2022-08-05T14:00:11;1.52;;;0.25;;
23115;SDS011;11727;52.134;5.052;2022-08-05T14:02:37;0.25;;;0.17;;
23115;SDS011;11727;52.134;5.052;2022-08-05T14:05:03;0.68;;;0.20;;
23115;SDS011;11727;52.134;5.052;2022-08-05T14:07:39;1.27;;;0.50;;
23115;SDS011;11727;52.134;5.052;2022-08-05T14:10:25;1.08;;;0.40;;
23115;SDS011;11727;52.134;5.052;2022-08-05T14:12:50;4.68;;;0.50;;
23115;SDS011;11727;52.134;5.052;2022-08-05T14:15:16;0.45;;;0.20;;
23115;SDS011;11727;52.134;5.052;2022-08-05T14:17:42;1.15;;;0.30;;
23115;SDS011;11727;52.134;5.052;2022-08-05T14:20:10;1.23;;;0.10;;
23115;SDS011;11727;52.134;5.052;2022-08-05T14:22:38;0.20;;;0.20;;
23115;SDS011;11727;52.134;5.052;2022-08-05T14:25:03;0.30;;;0.20;;
23115;SDS011;11727;52.134;5.052;2022-08-05T14:27:29;0.10;;;0.10;;
23115;SDS011;11727;52.134;5.052;2022-08-05T14:29:55;1.23;;;0.65;;
23115;SDS011;11727;52.134;5.052;2022-08-05T14:32:21;0.43;;;0.30;;
23115;SDS011;11727;52.134;5.052;2022-08-05T14:34:47;1.33;;;0.38;;
23115;SDS011;11727;52.134;5.052;2022-08-05T14:37:12;0.60;;;0.30;;
23115;SDS011;11727;52.134;5.052;2022-08-05T14:39:38;3.92;;;0.30;;
23115;SDS011;11727;52.134;5.052;2022-08-05T14:42:03;0.22;;;0.20;;
23115;SDS011;11727;52.134;5.052;2022-08-05T14:44:29;1.38;;;0.40;;
23115;SDS011;11727;52.134;5.052;2022-08-05T14:46:55;0.60;;;0.30;;
23115;SDS011;11727;52.134;5.052;2022-08-05T14:49:21;3.83;;;0.63;;
23115;SDS011;11727;52.134;5.052;2022-08-05T14:51:46;1.58;;;0.20;;
23115;SDS011;11727;52.134;5.052;2022-08-05T14:54:12;0.40;;;0.28;;
23115;SDS011;11727;52.134;5.052;2022-08-05T14:56:37;0.17;;;0.17;;
23115;SDS011;11727;52.134;5.052;2022-08-05T14:59:03;0.50;;;0.20;;
23115;SDS011;11727;52.134;5.052;2022-08-05T15:01:29;0.80;;;0.30;;
23115;SDS011;11727;52.134;5.052;2022-08-05T15:03:54;0.88;;;0.20;;
23115;SDS011;11727;52.134;5.052;2022-08-05T15:06:22;0.68;;;0.20;;
23115;SDS011;11727;52.134;5.052;2022-08-05T15:08:48;0.75;;;0.28;;
23115;SDS011;11727;52.134;5.052;2022-08-05T15:11:15;1.27;;;0.30;;
23115;SDS011;11727;52.134;5.052;2022-08-05T15:13:42;1.73;;;0.25;;
23115;SDS011;11727;52.134;5.052;2022-08-05T15:16:08;0.63;;;0.20;;
23115;SDS011;11727;52.134;5.052;2022-08-05T15:18:33;3.42;;;0.40;;
23115;SDS011;11727;52.134;5.052;2022-08-05T15:20:59;3.20;;;0.30;;
23115;SDS011;11727;52.134;5.052;2022-08-05T15:23:25;0.10;;;0.10;;
23115;SDS011;11727;52.134;5.052;2022-08-05T15:25:51;1.77;;;0.52;;
23115;SDS011;11727;52.134;5.052;2022-08-05T15:28:16;0.43;;;0.10;;
23115;SDS011;11727;52.134;5.052;2022-08-05T15:30:42;0.98;;;0.40;;
23115;SDS011;11727;52.134;5.052;2022-08-05T15:33:09;1.25;;;0.30;;
23115;SDS011;11727;52.134;5.052;2022-08-05T15:35:34;2.60;;;0.50;;
23115;SDS011;11727;52.134;5.052;2022-08-05T15:38:00;0.60;;;0.35;;
23115;SDS011;11727;52.134;5.052;2022-08-05T15:40:26;0.28;;;0.28;;
23115;SDS011;11727;52.134;5.052;2022-08-05T15:42:52;4.78;;;0.50;;
23115;SDS011;11727;52.134;5.052;2022-08-05T15:45:17;1.38;;;0.35;;
23115;SDS011;11727;52.134;5.052;2022-08-05T15:47:43;1.00;;;0.30;;
23115;SDS011;11727;52.134;5.052;2022-08-05T15:50:10;2.25;;;0.50;;
23115;SDS011;11727;52.134;5.052;2022-08-05T15:52:37;0.17;;;0.10;;
23115;SDS011;11727;52.134;5.052;2022-08-05T15:55:04;0.30;;;0.20;;
23115;SDS011;11727;52.134;5.052;2022-08-05T15:57:31;1.95;;;0.38;;